Jonestown, Texas
Current Conditions -  °F | °C
As of 7:15 AM on Sunday 23 Nov 2014 (Local Time) from KRYW Reporting Station
Scattered Clouds Scattered Clouds  
Wind Chill: 55°   Ceiling: Unl
Heat Index: 55°   Visibility: 10mi
Dew Point: 53°   Wind: 7mph
Humidity: 94%   Direction: 260°W
Pressure: 29.68"   Gusts: NA
Location:  30.4521°N, 97.9683°W
Report Text: KRYW 231315Z AUTO 26006KT 10SM SCT001 13/12 A2968 RMK AO2 P0001 T01270117
Loading
Personal Weather Stations






























Interactive Weather Map New forecast layout! Learn more

10-Day Weather Forecast

Advertisements
Track Severe Weather on mobile